This is the latest recevied weather packets stored in our database for station/object CA3EVY-3. If no packets are shown the sender has not sent any weather packets the latest 10 day(s).
| Time | Temp. | Humidity | Pressure | Rain* | Wind** | Luminosity | Snow |
|---|---|---|---|---|---|---|---|
| 1777964404 | 15° C | 45% | 915.6 hPa | - | - | - | - |
| 1777962604 | 15.56° C | 45% | 916.4 hPa | - | - | - | - |
| 1777961704 | 15.56° C | 45% | 916.6 hPa | - | - | - | - |
| 1777960804 | 15.56° C | 44% | 916.8 hPa | - | - | - | - |
| 1777959903 | 15.56° C | 44% | 917.1 hPa | - | - | - | - |
| 1777959006 | 16.11° C | 44% | 917 hPa | - | - | - | - |
| 1777958104 | 16.11° C | 44% | 917.3 hPa | - | - | - | - |
| 1777957203 | 16.11° C | 44% | 917.2 hPa | - | - | - | - |
| 1777956303 | 16.11° C | 44% | 917.2 hPa | - | - | - | - |
| 1777955403 | 16.11° C | 43% | 917.1 hPa | - | - | - | - |
| 1777954504 | 16.11° C | 43% | 917.1 hPa | - | - | - | - |
| 1777943704 | 16.11° C | 40% | 917 hPa | - | - | - | - |
| 1777900503 | 15° C | 48% | 918.5 hPa | - | - | - | - |
| 1777897804 | 15° C | 46% | 918.2 hPa | - | - | - | - |
| 1777896903 | 15° C | 46% | 918.2 hPa | - | - | - | - |
| 1777895104 | 14.44° C | 47% | 918 hPa | - | - | - | - |
| 1777894204 | 14.44° C | 46% | 918.1 hPa | - | - | - | - |
| 1777893304 | 14.44° C | 46% | 918.1 hPa | - | - | - | - |
| 1777889704 | 14.44° C | 46% | 917.9 hPa | - | - | - | - |
| 1777887003 | 14.44° C | 46% | 917.8 hPa | - | - | - | - |
| 1777886103 | 14.44° C | 46% | 917.8 hPa | - | - | - | - |
| 1777885204 | 14.44° C | 45% | 917.7 hPa | - | - | - | - |
| 1777883403 | 15° C | 45% | 917.5 hPa | - | - | - | - |
| 1777882503 | 15° C | 45% | 917.6 hPa | - | - | - | - |
| 1777881604 | 15° C | 46% | 917.8 hPa | - | - | - | - |
* Rain since midnight (hover to see other rain measurements)
** Current wind speed in m/s (hover to see current wind gust speed)